sensor_id;sensor_type;location;lat;lon;timestamp;P1;durP1;ratioP1;P2;durP2;ratioP2
74904;SDS011;63465;50.862;6.220;2022-10-26T00:02:02;3.30;;;3.10;;
74904;SDS011;63465;50.862;6.220;2022-10-26T00:04:29;8.00;;;3.33;;
74904;SDS011;63465;50.862;6.220;2022-10-26T00:06:55;6.73;;;3.13;;
74904;SDS011;63465;50.862;6.220;2022-10-26T00:09:22;10.53;;;3.40;;
74904;SDS011;63465;50.862;6.220;2022-10-26T00:11:49;8.83;;;3.87;;
74904;SDS011;63465;50.862;6.220;2022-10-26T00:14:17;6.77;;;3.57;;
74904;SDS011;63465;50.862;6.220;2022-10-26T00:16:43;9.10;;;3.47;;
74904;SDS011;63465;50.862;6.220;2022-10-26T00:19:12;6.43;;;3.47;;
74904;SDS011;63465;50.862;6.220;2022-10-26T00:21:38;5.73;;;3.67;;
74904;SDS011;63465;50.862;6.220;2022-10-26T00:24:05;5.17;;;3.33;;
74904;SDS011;63465;50.862;6.220;2022-10-26T00:26:32;8.60;;;3.53;;
74904;SDS011;63465;50.862;6.220;2022-10-26T00:28:58;7.87;;;3.90;;
74904;SDS011;63465;50.862;6.220;2022-10-26T00:31:25;8.50;;;3.37;;
74904;SDS011;63465;50.862;6.220;2022-10-26T00:33:52;5.00;;;3.53;;
74904;SDS011;63465;50.862;6.220;2022-10-26T00:36:20;9.03;;;3.80;;
74904;SDS011;63465;50.862;6.220;2022-10-26T00:38:47;6.20;;;3.47;;
74904;SDS011;63465;50.862;6.220;2022-10-26T00:41:15;14.90;;;3.80;;
74904;SDS011;63465;50.862;6.220;2022-10-26T00:43:42;6.70;;;3.40;;
74904;SDS011;63465;50.862;6.220;2022-10-26T00:46:11;8.80;;;3.43;;
74904;SDS011;63465;50.862;6.220;2022-10-26T00:48:42;9.10;;;3.20;;
74904;SDS011;63465;50.862;6.220;2022-10-26T00:51:14;6.90;;;3.00;;
74904;SDS011;63465;50.862;6.220;2022-10-26T00:53:47;8.87;;;3.00;;
74904;SDS011;63465;50.862;6.220;2022-10-26T00:56:14;4.70;;;2.80;;
74904;SDS011;63465;50.862;6.220;2022-10-26T00:58:42;8.47;;;3.30;;
74904;SDS011;63465;50.862;6.220;2022-10-26T01:01:09;9.90;;;2.73;;
74904;SDS011;63465;50.862;6.220;2022-10-26T01:03:36;8.27;;;2.80;;
74904;SDS011;63465;50.862;6.220;2022-10-26T01:06:04;3.73;;;3.00;;
74904;SDS011;63465;50.862;6.220;2022-10-26T01:08:31;4.97;;;3.10;;
74904;SDS011;63465;50.862;6.220;2022-10-26T01:11:00;7.13;;;3.03;;
74904;SDS011;63465;50.862;6.220;2022-10-26T01:13:29;5.70;;;3.40;;
74904;SDS011;63465;50.862;6.220;2022-10-26T01:16:02;3.53;;;2.53;;
74904;SDS011;63465;50.862;6.220;2022-10-26T01:18:43;5.17;;;2.80;;
74904;SDS011;63465;50.862;6.220;2022-10-26T01:24:22;9.20;;;3.30;;
74904;SDS011;63465;50.862;6.220;2022-10-26T01:30:16;8.90;;;4.00;;
74904;SDS011;63465;50.862;6.220;2022-10-26T01:35:48;4.50;;;3.37;;
74904;SDS011;63465;50.862;6.220;2022-10-26T01:38:21;7.23;;;4.17;;
74904;SDS011;63465;50.862;6.220;2022-10-26T01:40:53;13.83;;;4.50;;
74904;SDS011;63465;50.862;6.220;2022-10-26T01:43:26;10.50;;;6.00;;
74904;SDS011;63465;50.862;6.220;2022-10-26T01:45:57;12.03;;;5.13;;
74904;SDS011;63465;50.862;6.220;2022-10-26T01:48:24;6.73;;;4.80;;
74904;SDS011;63465;50.862;6.220;2022-10-26T01:50:53;9.53;;;4.10;;
74904;SDS011;63465;50.862;6.220;2022-10-26T01:53:21;9.90;;;4.20;;
74904;SDS011;63465;50.862;6.220;2022-10-26T01:55:51;3.93;;;3.53;;
74904;SDS011;63465;50.862;6.220;2022-10-26T02:01:47;5.40;;;3.30;;
74904;SDS011;63465;50.862;6.220;2022-10-26T02:04:33;6.70;;;3.20;;
74904;SDS011;63465;50.862;6.220;2022-10-26T02:07:09;5.83;;;3.90;;
74904;SDS011;63465;50.862;6.220;2022-10-26T02:09:45;11.83;;;3.80;;
74904;SDS011;63465;50.862;6.220;2022-10-26T02:12:28;10.03;;;3.27;;
74904;SDS011;63465;50.862;6.220;2022-10-26T02:15:04;4.33;;;3.27;;
74904;SDS011;63465;50.862;6.220;2022-10-26T02:17:36;5.00;;;3.37;;
74904;SDS011;63465;50.862;6.220;2022-10-26T02:20:12;8.67;;;3.47;;
74904;SDS011;63465;50.862;6.220;2022-10-26T02:22:44;13.03;;;3.40;;
74904;SDS011;63465;50.862;6.220;2022-10-26T02:25:15;4.80;;;3.43;;
74904;SDS011;63465;50.862;6.220;2022-10-26T02:27:45;5.07;;;3.40;;
74904;SDS011;63465;50.862;6.220;2022-10-26T02:30:16;7.43;;;3.30;;
74904;SDS011;63465;50.862;6.220;2022-10-26T02:32:46;6.03;;;2.97;;
74904;SDS011;63465;50.862;6.220;2022-10-26T02:35:16;8.23;;;3.27;;
74904;SDS011;63465;50.862;6.220;2022-10-26T02:37:46;5.17;;;3.17;;
74904;SDS011;63465;50.862;6.220;2022-10-26T02:40:15;5.20;;;3.23;;
74904;SDS011;63465;50.862;6.220;2022-10-26T02:42:45;4.43;;;3.10;;
74904;SDS011;63465;50.862;6.220;2022-10-26T02:45:16;7.53;;;2.90;;
74904;SDS011;63465;50.862;6.220;2022-10-26T02:47:52;6.53;;;2.70;;
74904;SDS011;63465;50.862;6.220;2022-10-26T02:50:20;5.50;;;3.83;;
74904;SDS011;63465;50.862;6.220;2022-10-26T02:52:53;8.47;;;3.60;;
74904;SDS011;63465;50.862;6.220;2022-10-26T02:55:33;7.80;;;3.60;;
74904;SDS011;63465;50.862;6.220;2022-10-26T02:58:06;2.83;;;2.40;;
74904;SDS011;63465;50.862;6.220;2022-10-26T03:00:38;5.93;;;3.37;;
74904;SDS011;63465;50.862;6.220;2022-10-26T03:03:06;4.97;;;2.50;;
74904;SDS011;63465;50.862;6.220;2022-10-26T03:05:33;9.83;;;2.30;;
74904;SDS011;63465;50.862;6.220;2022-10-26T03:08:01;8.50;;;2.17;;
74904;SDS011;63465;50.862;6.220;2022-10-26T03:10:28;3.90;;;2.30;;
74904;SDS011;63465;50.862;6.220;2022-10-26T03:12:57;6.33;;;2.30;;
74904;SDS011;63465;50.862;6.220;2022-10-26T03:15:24;3.53;;;1.80;;
74904;SDS011;63465;50.862;6.220;2022-10-26T03:17:51;1.60;;;1.50;;
74904;SDS011;63465;50.862;6.220;2022-10-26T03:20:19;0.90;;;0.90;;
74904;SDS011;63465;50.862;6.220;2022-10-26T03:22:46;2.03;;;1.13;;
74904;SDS011;63465;50.862;6.220;2022-10-26T03:25:13;1.73;;;1.00;;
74904;SDS011;63465;50.862;6.220;2022-10-26T03:27:40;2.50;;;1.00;;
74904;SDS011;63465;50.862;6.220;2022-10-26T03:30:07;1.00;;;1.00;;
74904;SDS011;63465;50.862;6.220;2022-10-26T03:32:34;3.10;;;1.20;;
74904;SDS011;63465;50.862;6.220;2022-10-26T03:35:01;0.90;;;0.90;;
74904;SDS011;63465;50.862;6.220;2022-10-26T03:37:29;0.87;;;0.87;;
74904;SDS011;63465;50.862;6.220;2022-10-26T03:39:56;2.10;;;1.07;;
74904;SDS011;63465;50.862;6.220;2022-10-26T03:42:23;1.50;;;1.40;;
74904;SDS011;63465;50.862;6.220;2022-10-26T03:44:49;0.90;;;0.90;;
74904;SDS011;63465;50.862;6.220;2022-10-26T03:47:16;3.20;;;1.40;;
74904;SDS011;63465;50.862;6.220;2022-10-26T03:49:43;2.97;;;0.97;;
74904;SDS011;63465;50.862;6.220;2022-10-26T03:52:09;1.53;;;1.20;;
74904;SDS011;63465;50.862;6.220;2022-10-26T03:54:37;3.10;;;1.20;;
74904;SDS011;63465;50.862;6.220;2022-10-26T03:57:04;1.40;;;1.30;;
74904;SDS011;63465;50.862;6.220;2022-10-26T03:59:30;1.00;;;1.00;;
74904;SDS011;63465;50.862;6.220;2022-10-26T04:01:57;4.33;;;1.17;;
74904;SDS011;63465;50.862;6.220;2022-10-26T04:04:24;3.13;;;1.20;;
74904;SDS011;63465;50.862;6.220;2022-10-26T04:06:51;1.30;;;1.20;;
74904;SDS011;63465;50.862;6.220;2022-10-26T04:09:17;3.07;;;1.10;;
74904;SDS011;63465;50.862;6.220;2022-10-26T04:11:45;2.00;;;1.13;;
74904;SDS011;63465;50.862;6.220;2022-10-26T04:14:12;1.20;;;0.87;;
74904;SDS011;63465;50.862;6.220;2022-10-26T04:16:39;1.67;;;1.10;;
74904;SDS011;63465;50.862;6.220;2022-10-26T04:19:06;2.30;;;1.53;;
74904;SDS011;63465;50.862;6.220;2022-10-26T04:21:33;3.03;;;1.43;;
74904;SDS011;63465;50.862;6.220;2022-10-26T04:24:00;1.03;;;1.03;;
74904;SDS011;63465;50.862;6.220;2022-10-26T04:26:27;2.17;;;1.23;;
74904;SDS011;63465;50.862;6.220;2022-10-26T04:28:55;1.57;;;1.10;;
74904;SDS011;63465;50.862;6.220;2022-10-26T04:31:22;1.00;;;1.00;;
74904;SDS011;63465;50.862;6.220;2022-10-26T04:33:48;1.00;;;1.00;;
74904;SDS011;63465;50.862;6.220;2022-10-26T04:36:15;1.73;;;1.30;;
74904;SDS011;63465;50.862;6.220;2022-10-26T04:38:42;2.40;;;1.30;;
74904;SDS011;63465;50.862;6.220;2022-10-26T04:41:09;2.73;;;1.40;;
74904;SDS011;63465;50.862;6.220;2022-10-26T04:43:35;6.20;;;1.23;;
74904;SDS011;63465;50.862;6.220;2022-10-26T04:46:04;1.43;;;1.33;;
74904;SDS011;63465;50.862;6.220;2022-10-26T04:48:30;0.97;;;0.97;;
74904;SDS011;63465;50.862;6.220;2022-10-26T04:50:57;1.07;;;0.97;;
74904;SDS011;63465;50.862;6.220;2022-10-26T04:53:25;3.00;;;1.80;;
74904;SDS011;63465;50.862;6.220;2022-10-26T04:55:55;1.40;;;1.10;;
74904;SDS011;63465;50.862;6.220;2022-10-26T04:58:22;3.13;;;1.10;;
74904;SDS011;63465;50.862;6.220;2022-10-26T05:00:49;2.20;;;1.43;;
74904;SDS011;63465;50.862;6.220;2022-10-26T05:03:17;2.40;;;1.30;;
74904;SDS011;63465;50.862;6.220;2022-10-26T05:05:43;2.23;;;1.70;;
74904;SDS011;63465;50.862;6.220;2022-10-26T05:08:11;1.23;;;0.97;;
74904;SDS011;63465;50.862;6.220;2022-10-26T05:10:38;2.60;;;1.10;;
74904;SDS011;63465;50.862;6.220;2022-10-26T05:13:05;0.97;;;0.97;;
74904;SDS011;63465;50.862;6.220;2022-10-26T05:15:32;2.67;;;0.93;;
74904;SDS011;63465;50.862;6.220;2022-10-26T05:17:59;5.67;;;1.73;;
74904;SDS011;63465;50.862;6.220;2022-10-26T05:20:29;1.47;;;1.10;;
74904;SDS011;63465;50.862;6.220;2022-10-26T05:22:57;2.93;;;1.70;;
74904;SDS011;63465;50.862;6.220;2022-10-26T05:25:25;2.70;;;1.07;;
74904;SDS011;63465;50.862;6.220;2022-10-26T05:27:55;1.67;;;1.20;;
74904;SDS011;63465;50.862;6.220;2022-10-26T05:30:22;1.00;;;1.00;;
74904;SDS011;63465;50.862;6.220;2022-10-26T05:32:52;1.63;;;1.20;;
74904;SDS011;63465;50.862;6.220;2022-10-26T05:35:19;1.13;;;1.03;;
74904;SDS011;63465;50.862;6.220;2022-10-26T05:37:47;7.10;;;1.37;;
74904;SDS011;63465;50.862;6.220;2022-10-26T05:40:13;1.10;;;1.00;;
74904;SDS011;63465;50.862;6.220;2022-10-26T05:42:41;4.73;;;1.20;;
74904;SDS011;63465;50.862;6.220;2022-10-26T05:45:08;4.93;;;1.70;;
74904;SDS011;63465;50.862;6.220;2022-10-26T05:47:36;1.97;;;1.57;;
74904;SDS011;63465;50.862;6.220;2022-10-26T05:50:04;3.50;;;1.27;;
74904;SDS011;63465;50.862;6.220;2022-10-26T05:52:36;1.73;;;1.37;;
74904;SDS011;63465;50.862;6.220;2022-10-26T05:55:06;4.17;;;1.30;;
74904;SDS011;63465;50.862;6.220;2022-10-26T05:57:34;4.10;;;1.40;;
74904;SDS011;63465;50.862;6.220;2022-10-26T06:00:05;2.30;;;1.30;;
74904;SDS011;63465;50.862;6.220;2022-10-26T06:02:38;2.00;;;1.53;;
74904;SDS011;63465;50.862;6.220;2022-10-26T06:05:17;3.10;;;1.60;;
74904;SDS011;63465;50.862;6.220;2022-10-26T06:07:49;2.90;;;1.50;;
74904;SDS011;63465;50.862;6.220;2022-10-26T06:10:18;2.07;;;1.97;;
74904;SDS011;63465;50.862;6.220;2022-10-26T06:12:45;3.67;;;1.97;;
74904;SDS011;63465;50.862;6.220;2022-10-26T06:15:13;4.50;;;2.63;;
74904;SDS011;63465;50.862;6.220;2022-10-26T06:17:45;5.83;;;4.30;;
74904;SDS011;63465;50.862;6.220;2022-10-26T06:20:25;7.40;;;3.00;;
74904;SDS011;63465;50.862;6.220;2022-10-26T06:23:04;7.80;;;3.37;;
74904;SDS011;63465;50.862;6.220;2022-10-26T06:25:42;4.80;;;2.67;;
74904;SDS011;63465;50.862;6.220;2022-10-26T06:28:20;9.30;;;2.53;;
74904;SDS011;63465;50.862;6.220;2022-10-26T06:30:54;6.50;;;2.53;;
74904;SDS011;63465;50.862;6.220;2022-10-26T06:33:22;8.63;;;3.47;;
74904;SDS011;63465;50.862;6.220;2022-10-26T06:35:53;5.37;;;3.50;;
74904;SDS011;63465;50.862;6.220;2022-10-26T06:38:28;7.03;;;3.93;;
74904;SDS011;63465;50.862;6.220;2022-10-26T06:40:59;5.03;;;3.10;;
74904;SDS011;63465;50.862;6.220;2022-10-26T06:43:28;3.93;;;2.60;;
74904;SDS011;63465;50.862;6.220;2022-10-26T06:45:59;2.40;;;2.20;;
74904;SDS011;63465;50.862;6.220;2022-10-26T06:48:32;4.77;;;2.87;;
74904;SDS011;63465;50.862;6.220;2022-10-26T06:51:08;2.83;;;2.50;;
74904;SDS011;63465;50.862;6.220;2022-10-26T06:53:40;7.60;;;2.77;;
74904;SDS011;63465;50.862;6.220;2022-10-26T06:56:13;7.33;;;3.93;;
74904;SDS011;63465;50.862;6.220;2022-10-26T06:58:42;7.90;;;4.33;;
74904;SDS011;63465;50.862;6.220;2022-10-26T07:01:10;7.23;;;3.20;;
74904;SDS011;63465;50.862;6.220;2022-10-26T07:03:38;6.20;;;2.93;;
74904;SDS011;63465;50.862;6.220;2022-10-26T07:06:05;4.30;;;2.70;;
74904;SDS011;63465;50.862;6.220;2022-10-26T07:08:31;3.60;;;2.53;;
74904;SDS011;63465;50.862;6.220;2022-10-26T07:10:58;5.60;;;3.50;;
74904;SDS011;63465;50.862;6.220;2022-10-26T07:13:26;6.17;;;3.33;;
74904;SDS011;63465;50.862;6.220;2022-10-26T07:15:53;15.83;;;4.13;;
74904;SDS011;63465;50.862;6.220;2022-10-26T07:18:19;7.33;;;4.20;;
74904;SDS011;63465;50.862;6.220;2022-10-26T07:20:46;8.37;;;4.37;;
74904;SDS011;63465;50.862;6.220;2022-10-26T07:23:13;7.60;;;3.53;;
74904;SDS011;63465;50.862;6.220;2022-10-26T07:25:40;19.60;;;3.90;;
74904;SDS011;63465;50.862;6.220;2022-10-26T07:28:07;4.20;;;2.97;;
74904;SDS011;63465;50.862;6.220;2022-10-26T07:30:37;3.13;;;2.93;;
74904;SDS011;63465;50.862;6.220;2022-10-26T07:33:05;8.53;;;3.93;;
74904;SDS011;63465;50.862;6.220;2022-10-26T07:35:33;7.20;;;4.93;;
74904;SDS011;63465;50.862;6.220;2022-10-26T07:37:59;5.87;;;3.83;;
74904;SDS011;63465;50.862;6.220;2022-10-26T07:40:27;7.47;;;4.70;;
74904;SDS011;63465;50.862;6.220;2022-10-26T07:42:55;11.30;;;4.10;;
74904;SDS011;63465;50.862;6.220;2022-10-26T07:45:22;6.43;;;3.70;;
74904;SDS011;63465;50.862;6.220;2022-10-26T07:47:50;8.63;;;3.30;;
74904;SDS011;63465;50.862;6.220;2022-10-26T07:50:17;4.50;;;3.20;;
74904;SDS011;63465;50.862;6.220;2022-10-26T07:52:44;7.80;;;2.97;;
74904;SDS011;63465;50.862;6.220;2022-10-26T07:55:10;4.73;;;3.10;;
74904;SDS011;63465;50.862;6.220;2022-10-26T07:57:38;9.07;;;3.60;;
74904;SDS011;63465;50.862;6.220;2022-10-26T08:00:05;9.63;;;3.80;;
74904;SDS011;63465;50.862;6.220;2022-10-26T08:02:34;9.90;;;3.87;;
74904;SDS011;63465;50.862;6.220;2022-10-26T08:05:03;2.90;;;2.70;;
74904;SDS011;63465;50.862;6.220;2022-10-26T08:07:31;2.37;;;2.17;;
74904;SDS011;63465;50.862;6.220;2022-10-26T08:09:57;2.97;;;2.63;;
74904;SDS011;63465;50.862;6.220;2022-10-26T08:12:24;4.93;;;2.33;;
74904;SDS011;63465;50.862;6.220;2022-10-26T08:14:51;5.40;;;2.10;;
74904;SDS011;63465;50.862;6.220;2022-10-26T08:17:18;3.33;;;1.97;;
74904;SDS011;63465;50.862;6.220;2022-10-26T08:19:46;5.30;;;1.93;;
74904;SDS011;63465;50.862;6.220;2022-10-26T08:22:14;3.53;;;2.07;;
74904;SDS011;63465;50.862;6.220;2022-10-26T08:24:41;11.33;;;2.23;;
74904;SDS011;63465;50.862;6.220;2022-10-26T08:27:08;2.30;;;1.83;;
74904;SDS011;63465;50.862;6.220;2022-10-26T08:29:35;7.67;;;2.80;;
74904;SDS011;63465;50.862;6.220;2022-10-26T08:32:01;4.60;;;2.40;;
74904;SDS011;63465;50.862;6.220;2022-10-26T08:34:28;6.23;;;3.00;;
74904;SDS011;63465;50.862;6.220;2022-10-26T08:36:54;2.63;;;1.83;;
74904;SDS011;63465;50.862;6.220;2022-10-26T08:39:23;6.20;;;2.30;;
74904;SDS011;63465;50.862;6.220;2022-10-26T08:41:52;4.50;;;3.27;;
74904;SDS011;63465;50.862;6.220;2022-10-26T08:44:28;9.00;;;2.27;;
74904;SDS011;63465;50.862;6.220;2022-10-26T08:46:59;2.67;;;2.27;;
74904;SDS011;63465;50.862;6.220;2022-10-26T08:49:35;6.23;;;1.90;;
74904;SDS011;63465;50.862;6.220;2022-10-26T08:52:08;3.53;;;2.13;;
74904;SDS011;63465;50.862;6.220;2022-10-26T08:54:41;3.10;;;2.40;;
74904;SDS011;63465;50.862;6.220;2022-10-26T08:57:15;4.17;;;1.83;;
74904;SDS011;63465;50.862;6.220;2022-10-26T08:59:48;14.67;;;2.50;;
74904;SDS011;63465;50.862;6.220;2022-10-26T09:02:19;3.90;;;1.80;;
74904;SDS011;63465;50.862;6.220;2022-10-26T09:04:46;5.40;;;2.43;;
74904;SDS011;63465;50.862;6.220;2022-10-26T09:07:17;2.30;;;2.10;;
74904;SDS011;63465;50.862;6.220;2022-10-26T09:10:05;3.70;;;2.03;;
74904;SDS011;63465;50.862;6.220;2022-10-26T09:12:43;3.07;;;2.10;;
74904;SDS011;63465;50.862;6.220;2022-10-26T09:15:19;3.00;;;1.90;;
74904;SDS011;63465;50.862;6.220;2022-10-26T09:17:56;7.70;;;2.43;;
74904;SDS011;63465;50.862;6.220;2022-10-26T09:20:43;6.73;;;2.40;;
74904;SDS011;63465;50.862;6.220;2022-10-26T09:23:27;4.60;;;2.00;;
74904;SDS011;63465;50.862;6.220;2022-10-26T09:26:04;3.43;;;2.17;;
74904;SDS011;63465;50.862;6.220;2022-10-26T09:28:38;4.80;;;1.90;;
74904;SDS011;63465;50.862;6.220;2022-10-26T09:31:08;5.40;;;2.30;;
74904;SDS011;63465;50.862;6.220;2022-10-26T09:33:40;4.73;;;1.87;;
74904;SDS011;63465;50.862;6.220;2022-10-26T09:36:07;3.73;;;2.10;;
74904;SDS011;63465;50.862;6.220;2022-10-26T09:38:38;5.23;;;1.87;;
74904;SDS011;63465;50.862;6.220;2022-10-26T09:41:12;6.37;;;1.77;;
74904;SDS011;63465;50.862;6.220;2022-10-26T09:43:45;2.60;;;1.50;;
74904;SDS011;63465;50.862;6.220;2022-10-26T09:46:17;1.83;;;1.73;;
74904;SDS011;63465;50.862;6.220;2022-10-26T09:48:48;2.17;;;1.53;;
74904;SDS011;63465;50.862;6.220;2022-10-26T09:51:19;8.43;;;1.80;;
74904;SDS011;63465;50.862;6.220;2022-10-26T09:53:47;1.60;;;1.50;;
74904;SDS011;63465;50.862;6.220;2022-10-26T09:56:16;6.03;;;1.70;;
74904;SDS011;63465;50.862;6.220;2022-10-26T09:58:45;2.50;;;1.60;;
74904;SDS011;63465;50.862;6.220;2022-10-26T10:01:19;2.60;;;1.80;;
74904;SDS011;63465;50.862;6.220;2022-10-26T10:03:47;5.90;;;1.60;;
74904;SDS011;63465;50.862;6.220;2022-10-26T10:06:35;4.27;;;1.53;;
74904;SDS011;63465;50.862;6.220;2022-10-26T10:09:06;2.30;;;1.40;;
74904;SDS011;63465;50.862;6.220;2022-10-26T10:11:38;3.27;;;1.70;;
74904;SDS011;63465;50.862;6.220;2022-10-26T10:14:06;1.50;;;1.40;;
74904;SDS011;63465;50.862;6.220;2022-10-26T10:16:34;3.60;;;1.70;;
74904;SDS011;63465;50.862;6.220;2022-10-26T10:19:01;5.27;;;1.60;;
74904;SDS011;63465;50.862;6.220;2022-10-26T10:21:32;2.10;;;1.00;;
74904;SDS011;63465;50.862;6.220;2022-10-26T10:24:01;1.63;;;1.53;;
74904;SDS011;63465;50.862;6.220;2022-10-26T10:26:27;3.00;;;1.40;;
74904;SDS011;63465;50.862;6.220;2022-10-26T10:28:56;6.23;;;1.50;;
74904;SDS011;63465;50.862;6.220;2022-10-26T10:31:28;5.53;;;1.40;;
74904;SDS011;63465;50.862;6.220;2022-10-26T10:33:56;3.90;;;1.10;;
74904;SDS011;63465;50.862;6.220;2022-10-26T10:36:24;2.80;;;1.23;;
74904;SDS011;63465;50.862;6.220;2022-10-26T10:38:53;2.83;;;1.40;;
74904;SDS011;63465;50.862;6.220;2022-10-26T10:41:24;2.50;;;1.17;;
74904;SDS011;63465;50.862;6.220;2022-10-26T10:43:57;2.70;;;1.50;;
74904;SDS011;63465;50.862;6.220;2022-10-26T10:46:30;2.30;;;1.17;;
74904;SDS011;63465;50.862;6.220;2022-10-26T10:49:00;3.70;;;1.60;;
74904;SDS011;63465;50.862;6.220;2022-10-26T10:51:29;5.27;;;1.70;;
74904;SDS011;63465;50.862;6.220;2022-10-26T10:54:01;1.23;;;1.13;;
74904;SDS011;63465;50.862;6.220;2022-10-26T10:56:34;1.33;;;1.23;;
74904;SDS011;63465;50.862;6.220;2022-10-26T10:59:18;3.53;;;1.47;;
74904;SDS011;63465;50.862;6.220;2022-10-26T11:02:21;0.97;;;0.97;;
74904;SDS011;63465;50.862;6.220;2022-10-26T11:05:02;1.63;;;1.30;;
74904;SDS011;63465;50.862;6.220;2022-10-26T11:07:43;1.03;;;1.00;;
74904;SDS011;63465;50.862;6.220;2022-10-26T11:10:15;2.03;;;1.20;;
74904;SDS011;63465;50.862;6.220;2022-10-26T11:12:47;3.13;;;1.43;;
74904;SDS011;63465;50.862;6.220;2022-10-26T11:15:22;4.00;;;1.53;;
74904;SDS011;63465;50.862;6.220;2022-10-26T11:17:53;7.83;;;1.40;;
74904;SDS011;63465;50.862;6.220;2022-10-26T11:20:25;8.83;;;1.80;;
74904;SDS011;63465;50.862;6.220;2022-10-26T11:22:59;2.07;;;1.47;;
74904;SDS011;63465;50.862;6.220;2022-10-26T11:25:32;4.17;;;1.40;;
74904;SDS011;63465;50.862;6.220;2022-10-26T11:28:03;14.80;;;1.90;;
74904;SDS011;63465;50.862;6.220;2022-10-26T11:30:40;3.03;;;1.17;;
74904;SDS011;63465;50.862;6.220;2022-10-26T11:33:14;5.87;;;1.60;;
74904;SDS011;63465;50.862;6.220;2022-10-26T11:35:45;6.63;;;1.80;;
74904;SDS011;63465;50.862;6.220;2022-10-26T11:38:21;5.83;;;2.00;;
74904;SDS011;63465;50.862;6.220;2022-10-26T11:40:52;8.97;;;2.00;;
74904;SDS011;63465;50.862;6.220;2022-10-26T11:43:24;2.80;;;1.83;;
74904;SDS011;63465;50.862;6.220;2022-10-26T11:46:01;4.80;;;2.30;;
74904;SDS011;63465;50.862;6.220;2022-10-26T11:48:32;2.10;;;1.90;;
74904;SDS011;63465;50.862;6.220;2022-10-26T11:51:06;9.77;;;2.13;;
74904;SDS011;63465;50.862;6.220;2022-10-26T11:53:41;3.30;;;1.40;;
74904;SDS011;63465;50.862;6.220;2022-10-26T11:56:12;2.93;;;1.60;;
74904;SDS011;63465;50.862;6.220;2022-10-26T11:58:44;4.57;;;1.70;;
74904;SDS011;63465;50.862;6.220;2022-10-26T12:01:13;8.83;;;2.00;;
74904;SDS011;63465;50.862;6.220;2022-10-26T12:03:42;2.93;;;1.40;;
74904;SDS011;63465;50.862;6.220;2022-10-26T12:06:12;3.47;;;1.47;;
74904;SDS011;63465;50.862;6.220;2022-10-26T12:08:42;2.43;;;1.37;;
74904;SDS011;63465;50.862;6.220;2022-10-26T12:11:17;4.20;;;1.73;;
74904;SDS011;63465;50.862;6.220;2022-10-26T12:13:56;2.73;;;1.77;;
74904;SDS011;63465;50.862;6.220;2022-10-26T12:16:33;1.53;;;1.43;;
74904;SDS011;63465;50.862;6.220;2022-10-26T12:19:08;1.90;;;1.70;;
74904;SDS011;63465;50.862;6.220;2022-10-26T12:21:40;2.60;;;1.70;;
74904;SDS011;63465;50.862;6.220;2022-10-26T12:26:55;4.37;;;1.77;;
74904;SDS011;63465;50.862;6.220;2022-10-26T12:29:29;6.40;;;1.40;;
74904;SDS011;63465;50.862;6.220;2022-10-26T12:32:02;3.37;;;1.60;;
74904;SDS011;63465;50.862;6.220;2022-10-26T12:34:55;3.10;;;2.03;;
74904;SDS011;63465;50.862;6.220;2022-10-26T12:37:31;6.40;;;1.90;;
74904;SDS011;63465;50.862;6.220;2022-10-26T12:52:21;7.97;;;1.57;;
74904;SDS011;63465;50.862;6.220;2022-10-26T12:55:01;1.80;;;1.30;;
74904;SDS011;63465;50.862;6.220;2022-10-26T12:57:44;7.63;;;1.23;;
74904;SDS011;63465;50.862;6.220;2022-10-26T13:00:23;6.53;;;1.10;;
74904;SDS011;63465;50.862;6.220;2022-10-26T13:02:58;3.53;;;1.57;;
74904;SDS011;63465;50.862;6.220;2022-10-26T13:08:44;3.43;;;1.20;;
74904;SDS011;63465;50.862;6.220;2022-10-26T13:11:12;3.20;;;1.20;;
74904;SDS011;63465;50.862;6.220;2022-10-26T13:13:43;1.33;;;1.00;;
74904;SDS011;63465;50.862;6.220;2022-10-26T13:16:17;1.43;;;1.20;;
74904;SDS011;63465;50.862;6.220;2022-10-26T13:18:44;1.40;;;1.30;;
74904;SDS011;63465;50.862;6.220;2022-10-26T13:21:14;1.20;;;1.10;;
74904;SDS011;63465;50.862;6.220;2022-10-26T13:23:42;2.90;;;1.27;;
74904;SDS011;63465;50.862;6.220;2022-10-26T13:26:13;0.83;;;0.80;;
74904;SDS011;63465;50.862;6.220;2022-10-26T13:28:43;1.77;;;0.97;;
74904;SDS011;63465;50.862;6.220;2022-10-26T13:31:16;3.67;;;1.13;;
74904;SDS011;63465;50.862;6.220;2022-10-26T13:34:02;0.73;;;0.70;;
74904;SDS011;63465;50.862;6.220;2022-10-26T13:36:31;1.33;;;0.97;;
74904;SDS011;63465;50.862;6.220;2022-10-26T13:39:05;1.23;;;0.80;;
74904;SDS011;63465;50.862;6.220;2022-10-26T13:41:37;2.10;;;0.90;;
74904;SDS011;63465;50.862;6.220;2022-10-26T13:44:10;1.80;;;0.80;;
74904;SDS011;63465;50.862;6.220;2022-10-26T13:46:52;1.70;;;1.00;;
74904;SDS011;63465;50.862;6.220;2022-10-26T13:49:26;1.90;;;1.20;;
74904;SDS011;63465;50.862;6.220;2022-10-26T13:51:59;0.80;;;0.80;;
74904;SDS011;63465;50.862;6.220;2022-10-26T13:54:31;3.07;;;1.10;;
74904;SDS011;63465;50.862;6.220;2022-10-26T13:57:04;1.57;;;0.90;;
74904;SDS011;63465;50.862;6.220;2022-10-26T13:59:42;0.80;;;0.80;;
74904;SDS011;63465;50.862;6.220;2022-10-26T14:02:17;1.27;;;0.80;;
74904;SDS011;63465;50.862;6.220;2022-10-26T14:04:50;3.03;;;0.83;;
74904;SDS011;63465;50.862;6.220;2022-10-26T14:07:19;1.30;;;0.80;;
74904;SDS011;63465;50.862;6.220;2022-10-26T14:09:53;2.10;;;0.87;;
74904;SDS011;63465;50.862;6.220;2022-10-26T14:12:21;2.30;;;1.17;;
74904;SDS011;63465;50.862;6.220;2022-10-26T14:14:49;2.40;;;1.00;;
74904;SDS011;63465;50.862;6.220;2022-10-26T14:17:18;6.37;;;1.10;;
74904;SDS011;63465;50.862;6.220;2022-10-26T14:19:46;1.43;;;1.03;;
74904;SDS011;63465;50.862;6.220;2022-10-26T14:22:17;3.33;;;1.20;;
74904;SDS011;63465;50.862;6.220;2022-10-26T14:24:49;1.90;;;1.10;;
74904;SDS011;63465;50.862;6.220;2022-10-26T14:27:20;1.70;;;1.07;;
74904;SDS011;63465;50.862;6.220;2022-10-26T14:29:49;0.80;;;0.80;;
74904;SDS011;63465;50.862;6.220;2022-10-26T14:32:20;2.50;;;1.10;;
74904;SDS011;63465;50.862;6.220;2022-10-26T14:34:48;3.03;;;0.83;;
74904;SDS011;63465;50.862;6.220;2022-10-26T14:37:19;2.90;;;1.10;;
74904;SDS011;63465;50.862;6.220;2022-10-26T14:39:51;3.70;;;0.90;;
74904;SDS011;63465;50.862;6.220;2022-10-26T14:42:24;2.50;;;0.90;;
74904;SDS011;63465;50.862;6.220;2022-10-26T14:44:54;1.67;;;1.33;;
74904;SDS011;63465;50.862;6.220;2022-10-26T14:47:23;4.67;;;1.50;;
74904;SDS011;63465;50.862;6.220;2022-10-26T14:49:52;1.53;;;1.43;;
74904;SDS011;63465;50.862;6.220;2022-10-26T14:52:20;1.03;;;0.97;;
74904;SDS011;63465;50.862;6.220;2022-10-26T14:54:55;2.90;;;1.40;;
74904;SDS011;63465;50.862;6.220;2022-10-26T14:57:32;2.87;;;1.00;;
74904;SDS011;63465;50.862;6.220;2022-10-26T15:00:03;3.27;;;1.17;;
74904;SDS011;63465;50.862;6.220;2022-10-26T15:02:38;3.17;;;1.00;;
74904;SDS011;63465;50.862;6.220;2022-10-26T15:05:15;1.23;;;1.10;;
74904;SDS011;63465;50.862;6.220;2022-10-26T15:07:45;1.20;;;1.10;;
74904;SDS011;63465;50.862;6.220;2022-10-26T15:13:19;3.17;;;1.43;;
74904;SDS011;63465;50.862;6.220;2022-10-26T15:15:49;5.67;;;1.90;;
74904;SDS011;63465;50.862;6.220;2022-10-26T15:18:18;7.90;;;1.40;;
74904;SDS011;63465;50.862;6.220;2022-10-26T15:20:48;1.40;;;1.30;;
74904;SDS011;63465;50.862;6.220;2022-10-26T15:23:16;1.77;;;1.20;;
74904;SDS011;63465;50.862;6.220;2022-10-26T15:25:48;2.00;;;1.10;;
74904;SDS011;63465;50.862;6.220;2022-10-26T15:28:22;2.27;;;1.33;;
74904;SDS011;63465;50.862;6.220;2022-10-26T15:30:57;2.73;;;1.30;;
74904;SDS011;63465;50.862;6.220;2022-10-26T15:33:25;1.57;;;1.47;;
74904;SDS011;63465;50.862;6.220;2022-10-26T15:36:02;2.33;;;2.13;;
74904;SDS011;63465;50.862;6.220;2022-10-26T15:38:37;1.57;;;1.37;;
74904;SDS011;63465;50.862;6.220;2022-10-26T15:41:03;2.30;;;1.40;;
74904;SDS011;63465;50.862;6.220;2022-10-26T15:43:39;1.53;;;1.30;;